sensor_id;sensor_type;location;lat;lon;timestamp;P1;durP1;ratioP1;P2;durP2;ratioP2
66129;SDS011;52930;51.464;11.764;2023-06-10T00:02:25;8.47;;;3.10;;
66129;SDS011;52930;51.464;11.764;2023-06-10T00:04:51;7.82;;;2.88;;
66129;SDS011;52930;51.464;11.764;2023-06-10T00:07:17;9.85;;;2.95;;
66129;SDS011;52930;51.464;11.764;2023-06-10T00:09:42;7.93;;;3.63;;
66129;SDS011;52930;51.464;11.764;2023-06-10T00:12:08;7.97;;;3.20;;
66129;SDS011;52930;51.464;11.764;2023-06-10T00:14:37;8.13;;;3.22;;
66129;SDS011;52930;51.464;11.764;2023-06-10T00:17:03;11.55;;;3.17;;
66129;SDS011;52930;51.464;11.764;2023-06-10T00:19:28;9.93;;;3.53;;
66129;SDS011;52930;51.464;11.764;2023-06-10T00:21:55;9.88;;;3.90;;
66129;SDS011;52930;51.464;11.764;2023-06-10T00:24:21;10.02;;;3.72;;
66129;SDS011;52930;51.464;11.764;2023-06-10T00:26:47;7.50;;;3.60;;
66129;SDS011;52930;51.464;11.764;2023-06-10T00:29:12;9.43;;;3.30;;
66129;SDS011;52930;51.464;11.764;2023-06-10T00:31:39;10.27;;;3.65;;
66129;SDS011;52930;51.464;11.764;2023-06-10T00:34:04;9.43;;;3.80;;
66129;SDS011;52930;51.464;11.764;2023-06-10T00:36:29;7.85;;;3.13;;
66129;SDS011;52930;51.464;11.764;2023-06-10T00:38:55;9.32;;;3.67;;
66129;SDS011;52930;51.464;11.764;2023-06-10T00:41:21;7.03;;;3.43;;
66129;SDS011;52930;51.464;11.764;2023-06-10T00:43:46;7.80;;;3.70;;
66129;SDS011;52930;51.464;11.764;2023-06-10T00:46:12;10.53;;;3.90;;
66129;SDS011;52930;51.464;11.764;2023-06-10T00:48:38;9.80;;;4.05;;
66129;SDS011;52930;51.464;11.764;2023-06-10T00:51:04;10.07;;;3.93;;
66129;SDS011;52930;51.464;11.764;2023-06-10T00:53:30;9.57;;;4.07;;
66129;SDS011;52930;51.464;11.764;2023-06-10T00:55:55;9.90;;;3.67;;
66129;SDS011;52930;51.464;11.764;2023-06-10T00:58:21;13.13;;;4.30;;
66129;SDS011;52930;51.464;11.764;2023-06-10T01:00:46;13.37;;;4.50;;
66129;SDS011;52930;51.464;11.764;2023-06-10T01:03:12;11.45;;;4.47;;
66129;SDS011;52930;51.464;11.764;2023-06-10T01:05:38;10.47;;;4.20;;
66129;SDS011;52930;51.464;11.764;2023-06-10T01:10:37;9.25;;;4.38;;
66129;SDS011;52930;51.464;11.764;2023-06-10T01:13:08;8.88;;;3.90;;
66129;SDS011;52930;51.464;11.764;2023-06-10T01:15:36;11.50;;;4.25;;
66129;SDS011;52930;51.464;11.764;2023-06-10T01:18:05;9.18;;;4.22;;
66129;SDS011;52930;51.464;11.764;2023-06-10T01:20:40;10.25;;;4.57;;
66129;SDS011;52930;51.464;11.764;2023-06-10T01:23:06;11.80;;;4.50;;
66129;SDS011;52930;51.464;11.764;2023-06-10T01:25:32;12.45;;;5.05;;
66129;SDS011;52930;51.464;11.764;2023-06-10T01:28:13;10.23;;;4.38;;
66129;SDS011;52930;51.464;11.764;2023-06-10T01:33:37;12.23;;;4.75;;
66129;SDS011;52930;51.464;11.764;2023-06-10T01:36:04;9.55;;;4.28;;
66129;SDS011;52930;51.464;11.764;2023-06-10T01:38:33;10.38;;;4.35;;
66129;SDS011;52930;51.464;11.764;2023-06-10T01:41:02;11.05;;;4.40;;
66129;SDS011;52930;51.464;11.764;2023-06-10T01:43:28;12.07;;;4.88;;
66129;SDS011;52930;51.464;11.764;2023-06-10T01:45:53;9.63;;;4.37;;
66129;SDS011;52930;51.464;11.764;2023-06-10T01:48:19;12.00;;;4.90;;
66129;SDS011;52930;51.464;11.764;2023-06-10T01:50:44;9.93;;;4.57;;
66129;SDS011;52930;51.464;11.764;2023-06-10T01:53:09;11.17;;;4.57;;
66129;SDS011;52930;51.464;11.764;2023-06-10T01:55:35;11.77;;;4.97;;
66129;SDS011;52930;51.464;11.764;2023-06-10T01:58:00;12.37;;;5.00;;
66129;SDS011;52930;51.464;11.764;2023-06-10T02:00:25;9.73;;;4.95;;
66129;SDS011;52930;51.464;11.764;2023-06-10T02:02:51;12.90;;;4.63;;
66129;SDS011;52930;51.464;11.764;2023-06-10T02:05:16;12.10;;;5.20;;
66129;SDS011;52930;51.464;11.764;2023-06-10T02:07:42;11.07;;;5.10;;
66129;SDS011;52930;51.464;11.764;2023-06-10T02:10:07;11.97;;;5.13;;
66129;SDS011;52930;51.464;11.764;2023-06-10T02:12:33;11.02;;;5.32;;
66129;SDS011;52930;51.464;11.764;2023-06-10T02:14:58;14.50;;;5.40;;
66129;SDS011;52930;51.464;11.764;2023-06-10T02:17:23;10.20;;;5.40;;
66129;SDS011;52930;51.464;11.764;2023-06-10T02:19:49;11.10;;;5.33;;
66129;SDS011;52930;51.464;11.764;2023-06-10T02:22:20;11.80;;;5.22;;
66129;SDS011;52930;51.464;11.764;2023-06-10T02:24:45;10.60;;;5.10;;
66129;SDS011;52930;51.464;11.764;2023-06-10T02:27:11;14.73;;;5.40;;
66129;SDS011;52930;51.464;11.764;2023-06-10T02:29:36;14.33;;;5.60;;
66129;SDS011;52930;51.464;11.764;2023-06-10T02:32:02;10.27;;;5.10;;
66129;SDS011;52930;51.464;11.764;2023-06-10T02:34:27;13.70;;;5.63;;
66129;SDS011;52930;51.464;11.764;2023-06-10T02:36:53;12.00;;;5.47;;
66129;SDS011;52930;51.464;11.764;2023-06-10T02:39:18;10.43;;;5.70;;
66129;SDS011;52930;51.464;11.764;2023-06-10T02:41:44;10.87;;;5.17;;
66129;SDS011;52930;51.464;11.764;2023-06-10T02:44:09;10.23;;;5.70;;
66129;SDS011;52930;51.464;11.764;2023-06-10T02:46:35;12.17;;;5.20;;
66129;SDS011;52930;51.464;11.764;2023-06-10T02:49:00;11.20;;;5.53;;
66129;SDS011;52930;51.464;11.764;2023-06-10T02:51:26;13.98;;;6.97;;
66129;SDS011;52930;51.464;11.764;2023-06-10T02:53:52;14.67;;;6.60;;
66129;SDS011;52930;51.464;11.764;2023-06-10T02:56:17;14.03;;;6.23;;
66129;SDS011;52930;51.464;11.764;2023-06-10T02:58:43;15.18;;;6.45;;
66129;SDS011;52930;51.464;11.764;2023-06-10T03:01:09;13.68;;;5.90;;
66129;SDS011;52930;51.464;11.764;2023-06-10T03:03:35;13.95;;;5.90;;
66129;SDS011;52930;51.464;11.764;2023-06-10T03:06:01;15.73;;;6.35;;
66129;SDS011;52930;51.464;11.764;2023-06-10T03:08:27;10.60;;;6.10;;
66129;SDS011;52930;51.464;11.764;2023-06-10T03:10:53;14.90;;;6.87;;
66129;SDS011;52930;51.464;11.764;2023-06-10T03:13:18;15.33;;;6.70;;
66129;SDS011;52930;51.464;11.764;2023-06-10T03:15:44;12.10;;;6.00;;
66129;SDS011;52930;51.464;11.764;2023-06-10T03:18:11;17.38;;;7.03;;
66129;SDS011;52930;51.464;11.764;2023-06-10T03:20:36;15.38;;;6.97;;
66129;SDS011;52930;51.464;11.764;2023-06-10T03:23:03;12.23;;;6.63;;
66129;SDS011;52930;51.464;11.764;2023-06-10T03:25:31;16.08;;;6.70;;
66129;SDS011;52930;51.464;11.764;2023-06-10T03:27:56;14.57;;;6.80;;
66129;SDS011;52930;51.464;11.764;2023-06-10T03:30:21;13.23;;;6.50;;
66129;SDS011;52930;51.464;11.764;2023-06-10T03:32:47;14.97;;;6.27;;
66129;SDS011;52930;51.464;11.764;2023-06-10T03:35:13;14.02;;;6.40;;
66129;SDS011;52930;51.464;11.764;2023-06-10T03:37:39;14.30;;;6.72;;
66129;SDS011;52930;51.464;11.764;2023-06-10T03:40:05;14.20;;;6.45;;
66129;SDS011;52930;51.464;11.764;2023-06-10T03:42:32;14.43;;;6.17;;
66129;SDS011;52930;51.464;11.764;2023-06-10T03:44:57;13.50;;;6.25;;
66129;SDS011;52930;51.464;11.764;2023-06-10T03:47:23;16.05;;;7.10;;
66129;SDS011;52930;51.464;11.764;2023-06-10T03:49:48;13.77;;;6.13;;
66129;SDS011;52930;51.464;11.764;2023-06-10T03:52:13;15.23;;;6.93;;
66129;SDS011;52930;51.464;11.764;2023-06-10T03:54:39;15.63;;;6.73;;
66129;SDS011;52930;51.464;11.764;2023-06-10T03:57:04;15.13;;;6.50;;
66129;SDS011;52930;51.464;11.764;2023-06-10T03:59:30;12.45;;;6.70;;
66129;SDS011;52930;51.464;11.764;2023-06-10T04:01:56;14.63;;;6.67;;
66129;SDS011;52930;51.464;11.764;2023-06-10T04:04:22;12.10;;;6.65;;
66129;SDS011;52930;51.464;11.764;2023-06-10T04:06:48;16.27;;;6.75;;
66129;SDS011;52930;51.464;11.764;2023-06-10T04:09:15;15.05;;;7.28;;
66129;SDS011;52930;51.464;11.764;2023-06-10T04:11:41;14.27;;;6.13;;
66129;SDS011;52930;51.464;11.764;2023-06-10T04:14:07;14.15;;;7.15;;
66129;SDS011;52930;51.464;11.764;2023-06-10T04:16:33;15.47;;;6.43;;
66129;SDS011;52930;51.464;11.764;2023-06-10T04:18:58;12.57;;;6.38;;
66129;SDS011;52930;51.464;11.764;2023-06-10T04:21:25;13.73;;;5.90;;
66129;SDS011;52930;51.464;11.764;2023-06-10T04:23:50;13.63;;;6.18;;
66129;SDS011;52930;51.464;11.764;2023-06-10T04:26:16;17.47;;;6.20;;
66129;SDS011;52930;51.464;11.764;2023-06-10T04:28:42;11.30;;;6.17;;
66129;SDS011;52930;51.464;11.764;2023-06-10T04:31:08;13.45;;;5.45;;
66129;SDS011;52930;51.464;11.764;2023-06-10T04:33:33;11.93;;;5.27;;
66129;SDS011;52930;51.464;11.764;2023-06-10T04:35:59;12.90;;;5.33;;
66129;SDS011;52930;51.464;11.764;2023-06-10T04:38:24;13.18;;;5.13;;
66129;SDS011;52930;51.464;11.764;2023-06-10T04:40:50;11.93;;;5.20;;
66129;SDS011;52930;51.464;11.764;2023-06-10T04:43:15;11.57;;;5.53;;
66129;SDS011;52930;51.464;11.764;2023-06-10T04:45:41;10.43;;;5.60;;
66129;SDS011;52930;51.464;11.764;2023-06-10T04:48:10;14.68;;;5.40;;
66129;SDS011;52930;51.464;11.764;2023-06-10T04:50:35;22.10;;;5.78;;
66129;SDS011;52930;51.464;11.764;2023-06-10T04:53:01;10.82;;;5.47;;
66129;SDS011;52930;51.464;11.764;2023-06-10T04:55:26;10.60;;;4.90;;
66129;SDS011;52930;51.464;11.764;2023-06-10T04:57:52;11.13;;;6.07;;
66129;SDS011;52930;51.464;11.764;2023-06-10T05:00:17;11.27;;;5.70;;
66129;SDS011;52930;51.464;11.764;2023-06-10T05:02:42;12.63;;;6.23;;
66129;SDS011;52930;51.464;11.764;2023-06-10T05:05:08;13.87;;;6.50;;
66129;SDS011;52930;51.464;11.764;2023-06-10T05:07:33;12.70;;;6.80;;
66129;SDS011;52930;51.464;11.764;2023-06-10T05:09:59;11.90;;;6.85;;
66129;SDS011;52930;51.464;11.764;2023-06-10T05:12:24;15.60;;;6.73;;
66129;SDS011;52930;51.464;11.764;2023-06-10T05:14:50;18.77;;;8.77;;
66129;SDS011;52930;51.464;11.764;2023-06-10T05:17:16;19.33;;;7.20;;
66129;SDS011;52930;51.464;11.764;2023-06-10T05:19:41;19.03;;;7.87;;
66129;SDS011;52930;51.464;11.764;2023-06-10T05:22:08;19.80;;;7.57;;
66129;SDS011;52930;51.464;11.764;2023-06-10T05:24:33;15.03;;;6.43;;
66129;SDS011;52930;51.464;11.764;2023-06-10T05:26:58;15.03;;;7.87;;
66129;SDS011;52930;51.464;11.764;2023-06-10T05:29:24;15.70;;;7.45;;
66129;SDS011;52930;51.464;11.764;2023-06-10T05:31:50;14.77;;;7.37;;
66129;SDS011;52930;51.464;11.764;2023-06-10T05:34:16;13.68;;;6.97;;
66129;SDS011;52930;51.464;11.764;2023-06-10T05:36:41;14.73;;;7.83;;
66129;SDS011;52930;51.464;11.764;2023-06-10T05:39:06;17.70;;;8.17;;
66129;SDS011;52930;51.464;11.764;2023-06-10T05:41:32;15.90;;;7.80;;
66129;SDS011;52930;51.464;11.764;2023-06-10T05:43:57;21.03;;;8.30;;
66129;SDS011;52930;51.464;11.764;2023-06-10T05:46:22;14.57;;;7.37;;
66129;SDS011;52930;51.464;11.764;2023-06-10T05:48:48;17.10;;;7.87;;
66129;SDS011;52930;51.464;11.764;2023-06-10T05:51:13;17.13;;;7.97;;
66129;SDS011;52930;51.464;11.764;2023-06-10T05:53:38;18.13;;;7.80;;
66129;SDS011;52930;51.464;11.764;2023-06-10T05:56:04;18.00;;;6.83;;
66129;SDS011;52930;51.464;11.764;2023-06-10T05:58:30;15.10;;;6.90;;
66129;SDS011;52930;51.464;11.764;2023-06-10T06:00:55;14.50;;;6.85;;
66129;SDS011;52930;51.464;11.764;2023-06-10T06:03:20;14.00;;;6.87;;
66129;SDS011;52930;51.464;11.764;2023-06-10T06:05:46;14.23;;;6.67;;
66129;SDS011;52930;51.464;11.764;2023-06-10T06:08:11;17.50;;;7.50;;
66129;SDS011;52930;51.464;11.764;2023-06-10T06:10:38;16.92;;;7.53;;
66129;SDS011;52930;51.464;11.764;2023-06-10T06:13:03;18.87;;;7.50;;
66129;SDS011;52930;51.464;11.764;2023-06-10T06:15:29;12.93;;;6.60;;
66129;SDS011;52930;51.464;11.764;2023-06-10T06:17:54;19.40;;;7.27;;
66129;SDS011;52930;51.464;11.764;2023-06-10T06:20:20;14.60;;;7.13;;
66129;SDS011;52930;51.464;11.764;2023-06-10T06:22:46;16.42;;;7.35;;
66129;SDS011;52930;51.464;11.764;2023-06-10T06:25:11;15.90;;;6.97;;
66129;SDS011;52930;51.464;11.764;2023-06-10T06:27:37;16.57;;;7.00;;
66129;SDS011;52930;51.464;11.764;2023-06-10T06:30:02;11.63;;;7.20;;
66129;SDS011;52930;51.464;11.764;2023-06-10T06:32:28;17.70;;;7.50;;
66129;SDS011;52930;51.464;11.764;2023-06-10T06:34:53;13.90;;;6.70;;
66129;SDS011;52930;51.464;11.764;2023-06-10T06:37:22;16.97;;;8.40;;
66129;SDS011;52930;51.464;11.764;2023-06-10T06:39:52;16.80;;;7.85;;
66129;SDS011;52930;51.464;11.764;2023-06-10T06:42:18;14.05;;;7.43;;
66129;SDS011;52930;51.464;11.764;2023-06-10T06:44:44;12.63;;;7.40;;
66129;SDS011;52930;51.464;11.764;2023-06-10T06:47:09;19.27;;;8.70;;
66129;SDS011;52930;51.464;11.764;2023-06-10T06:49:35;17.33;;;7.43;;
66129;SDS011;52930;51.464;11.764;2023-06-10T06:52:00;18.65;;;8.35;;
66129;SDS011;52930;51.464;11.764;2023-06-10T06:54:26;14.90;;;8.07;;
66129;SDS011;52930;51.464;11.764;2023-06-10T06:56:51;15.67;;;8.53;;
66129;SDS011;52930;51.464;11.764;2023-06-10T06:59:16;16.40;;;7.77;;
66129;SDS011;52930;51.464;11.764;2023-06-10T07:01:44;18.00;;;7.78;;
66129;SDS011;52930;51.464;11.764;2023-06-10T07:04:10;16.70;;;8.30;;
66129;SDS011;52930;51.464;11.764;2023-06-10T07:06:35;15.57;;;8.37;;
66129;SDS011;52930;51.464;11.764;2023-06-10T07:09:01;14.57;;;8.03;;
66129;SDS011;52930;51.464;11.764;2023-06-10T07:11:26;14.77;;;8.10;;
66129;SDS011;52930;51.464;11.764;2023-06-10T07:13:51;15.10;;;7.80;;
66129;SDS011;52930;51.464;11.764;2023-06-10T07:16:17;18.03;;;8.93;;
66129;SDS011;52930;51.464;11.764;2023-06-10T07:18:45;12.80;;;7.60;;
66129;SDS011;52930;51.464;11.764;2023-06-10T07:21:11;17.40;;;8.40;;
66129;SDS011;52930;51.464;11.764;2023-06-10T07:23:36;17.03;;;8.33;;
66129;SDS011;52930;51.464;11.764;2023-06-10T07:26:01;17.70;;;7.83;;
66129;SDS011;52930;51.464;11.764;2023-06-10T07:28:26;14.07;;;8.07;;
66129;SDS011;52930;51.464;11.764;2023-06-10T07:30:52;18.42;;;7.47;;
66129;SDS011;52930;51.464;11.764;2023-06-10T07:33:17;12.97;;;7.97;;
66129;SDS011;52930;51.464;11.764;2023-06-10T07:35:42;19.53;;;8.47;;
66129;SDS011;52930;51.464;11.764;2023-06-10T07:38:08;15.07;;;8.17;;
66129;SDS011;52930;51.464;11.764;2023-06-10T07:40:33;15.70;;;7.30;;
66129;SDS011;52930;51.464;11.764;2023-06-10T07:42:58;15.13;;;7.33;;
66129;SDS011;52930;51.464;11.764;2023-06-10T07:45:24;14.53;;;8.43;;
66129;SDS011;52930;51.464;11.764;2023-06-10T07:47:50;15.80;;;8.93;;
66129;SDS011;52930;51.464;11.764;2023-06-10T07:50:15;14.70;;;8.60;;
66129;SDS011;52930;51.464;11.764;2023-06-10T07:52:40;15.43;;;8.30;;
66129;SDS011;52930;51.464;11.764;2023-06-10T07:55:06;17.50;;;8.63;;
66129;SDS011;52930;51.464;11.764;2023-06-10T07:57:32;14.32;;;8.45;;
66129;SDS011;52930;51.464;11.764;2023-06-10T07:59:59;18.08;;;8.73;;
66129;SDS011;52930;51.464;11.764;2023-06-10T08:02:26;13.95;;;8.18;;
66129;SDS011;52930;51.464;11.764;2023-06-10T08:04:51;17.43;;;8.20;;
66129;SDS011;52930;51.464;11.764;2023-06-10T08:07:17;15.23;;;9.30;;
66129;SDS011;52930;51.464;11.764;2023-06-10T08:09:44;17.17;;;8.68;;
66129;SDS011;52930;51.464;11.764;2023-06-10T08:12:09;13.63;;;8.17;;
66129;SDS011;52930;51.464;11.764;2023-06-10T08:14:35;13.77;;;8.37;;
66129;SDS011;52930;51.464;11.764;2023-06-10T08:17:00;19.63;;;9.13;;
66129;SDS011;52930;51.464;11.764;2023-06-10T08:19:25;15.17;;;8.03;;
66129;SDS011;52930;51.464;11.764;2023-06-10T08:21:51;14.93;;;8.50;;
66129;SDS011;52930;51.464;11.764;2023-06-10T08:24:16;15.17;;;8.70;;
66129;SDS011;52930;51.464;11.764;2023-06-10T08:26:43;14.75;;;8.48;;
66129;SDS011;52930;51.464;11.764;2023-06-10T08:29:08;15.80;;;7.83;;
66129;SDS011;52930;51.464;11.764;2023-06-10T08:31:34;14.13;;;8.63;;
66129;SDS011;52930;51.464;11.764;2023-06-10T08:33:59;17.07;;;8.37;;
66129;SDS011;52930;51.464;11.764;2023-06-10T08:36:24;16.17;;;9.13;;
66129;SDS011;52930;51.464;11.764;2023-06-10T08:38:50;15.13;;;8.90;;
66129;SDS011;52930;51.464;11.764;2023-06-10T08:41:17;14.23;;;8.70;;
66129;SDS011;52930;51.464;11.764;2023-06-10T08:43:48;18.27;;;9.00;;
66129;SDS011;52930;51.464;11.764;2023-06-10T08:46:24;17.20;;;9.68;;
66129;SDS011;52930;51.464;11.764;2023-06-10T08:48:51;15.50;;;8.65;;
66129;SDS011;52930;51.464;11.764;2023-06-10T08:51:20;18.98;;;9.20;;
66129;SDS011;52930;51.464;11.764;2023-06-10T08:54:01;15.17;;;8.70;;
66129;SDS011;52930;51.464;11.764;2023-06-10T08:56:28;19.38;;;10.07;;
66129;SDS011;52930;51.464;11.764;2023-06-10T08:58:53;18.57;;;8.43;;
66129;SDS011;52930;51.464;11.764;2023-06-10T09:01:20;15.70;;;9.07;;
66129;SDS011;52930;51.464;11.764;2023-06-10T09:03:45;15.75;;;8.55;;
66129;SDS011;52930;51.464;11.764;2023-06-10T09:06:10;15.90;;;8.53;;
66129;SDS011;52930;51.464;11.764;2023-06-10T09:08:36;12.97;;;8.50;;
66129;SDS011;52930;51.464;11.764;2023-06-10T09:11:01;13.33;;;8.30;;
66129;SDS011;52930;51.464;11.764;2023-06-10T09:13:27;13.47;;;8.07;;
66129;SDS011;52930;51.464;11.764;2023-06-10T09:15:52;12.60;;;8.33;;
66129;SDS011;52930;51.464;11.764;2023-06-10T09:18:17;17.17;;;9.00;;
66129;SDS011;52930;51.464;11.764;2023-06-10T09:20:43;14.10;;;8.25;;
66129;SDS011;52930;51.464;11.764;2023-06-10T09:23:08;14.00;;;8.27;;
66129;SDS011;52930;51.464;11.764;2023-06-10T09:25:38;13.75;;;8.00;;
66129;SDS011;52930;51.464;11.764;2023-06-10T09:28:03;13.80;;;8.07;;
66129;SDS011;52930;51.464;11.764;2023-06-10T09:30:30;14.82;;;8.75;;
66129;SDS011;52930;51.464;11.764;2023-06-10T09:32:56;14.48;;;9.00;;
66129;SDS011;52930;51.464;11.764;2023-06-10T09:35:26;12.57;;;7.53;;
66129;SDS011;52930;51.464;11.764;2023-06-10T09:37:58;13.40;;;7.75;;
66129;SDS011;52930;51.464;11.764;2023-06-10T09:40:25;15.70;;;7.83;;
66129;SDS011;52930;51.464;11.764;2023-06-10T09:42:57;14.25;;;7.55;;
66129;SDS011;52930;51.464;11.764;2023-06-10T09:45:27;12.95;;;7.40;;
66129;SDS011;52930;51.464;11.764;2023-06-10T09:47:54;13.57;;;7.23;;
66129;SDS011;52930;51.464;11.764;2023-06-10T09:50:20;12.73;;;7.32;;
66129;SDS011;52930;51.464;11.764;2023-06-10T09:52:46;14.27;;;7.47;;
66129;SDS011;52930;51.464;11.764;2023-06-10T09:55:15;11.88;;;8.23;;
66129;SDS011;52930;51.464;11.764;2023-06-10T09:57:41;13.82;;;8.40;;
66129;SDS011;52930;51.464;11.764;2023-06-10T10:00:10;14.93;;;8.27;;
66129;SDS011;52930;51.464;11.764;2023-06-10T10:02:44;13.23;;;8.27;;
66129;SDS011;52930;51.464;11.764;2023-06-10T10:05:09;16.42;;;8.40;;
66129;SDS011;52930;51.464;11.764;2023-06-10T10:07:34;14.30;;;8.70;;
66129;SDS011;52930;51.464;11.764;2023-06-10T10:10:00;14.27;;;8.17;;
66129;SDS011;52930;51.464;11.764;2023-06-10T10:12:25;13.33;;;8.33;;
66129;SDS011;52930;51.464;11.764;2023-06-10T10:14:51;13.73;;;8.13;;
66129;SDS011;52930;51.464;11.764;2023-06-10T10:17:17;13.93;;;8.73;;
66129;SDS011;52930;51.464;11.764;2023-06-10T10:19:46;12.07;;;7.85;;
66129;SDS011;52930;51.464;11.764;2023-06-10T10:22:36;10.50;;;7.13;;
66129;SDS011;52930;51.464;11.764;2023-06-10T10:25:10;13.88;;;7.47;;
66129;SDS011;52930;51.464;11.764;2023-06-10T10:27:55;14.03;;;7.60;;
66129;SDS011;52930;51.464;11.764;2023-06-10T10:30:23;15.43;;;7.97;;
66129;SDS011;52930;51.464;11.764;2023-06-10T10:32:56;10.93;;;8.07;;
66129;SDS011;52930;51.464;11.764;2023-06-10T10:35:26;12.60;;;7.88;;
66129;SDS011;52930;51.464;11.764;2023-06-10T10:37:54;13.53;;;7.87;;
66129;SDS011;52930;51.464;11.764;2023-06-10T10:40:20;10.48;;;7.47;;
66129;SDS011;52930;51.464;11.764;2023-06-10T10:42:49;11.70;;;6.90;;
66129;SDS011;52930;51.464;11.764;2023-06-10T10:45:16;14.00;;;7.38;;
66129;SDS011;52930;51.464;11.764;2023-06-10T10:47:41;12.77;;;6.70;;
66129;SDS011;52930;51.464;11.764;2023-06-10T10:52:54;11.87;;;7.23;;
66129;SDS011;52930;51.464;11.764;2023-06-10T10:55:21;11.00;;;7.40;;
66129;SDS011;52930;51.464;11.764;2023-06-10T10:57:56;11.13;;;7.28;;
66129;SDS011;52930;51.464;11.764;2023-06-10T11:00:36;9.55;;;6.53;;
66129;SDS011;52930;51.464;11.764;2023-06-10T11:05:32;13.33;;;7.63;;
66129;SDS011;52930;51.464;11.764;2023-06-10T11:08:02;15.43;;;7.07;;
66129;SDS011;52930;51.464;11.764;2023-06-10T11:10:29;11.25;;;6.75;;
66129;SDS011;52930;51.464;11.764;2023-06-10T11:12:58;15.27;;;7.55;;
66129;SDS011;52930;51.464;11.764;2023-06-10T11:15:25;10.63;;;7.20;;
66129;SDS011;52930;51.464;11.764;2023-06-10T11:18:08;10.93;;;7.32;;
66129;SDS011;52930;51.464;11.764;2023-06-10T11:23:24;11.52;;;6.70;;
66129;SDS011;52930;51.464;11.764;2023-06-10T11:28:37;15.57;;;7.15;;
66129;SDS011;52930;51.464;11.764;2023-06-10T11:31:03;11.38;;;6.93;;
66129;SDS011;52930;51.464;11.764;2023-06-10T11:33:28;11.43;;;7.33;;
66129;SDS011;52930;51.464;11.764;2023-06-10T11:35:54;9.90;;;6.75;;
66129;SDS011;52930;51.464;11.764;2023-06-10T11:38:20;12.63;;;7.40;;
66129;SDS011;52930;51.464;11.764;2023-06-10T11:40:48;11.27;;;7.00;;
66129;SDS011;52930;51.464;11.764;2023-06-10T11:43:17;11.33;;;6.93;;
66129;SDS011;52930;51.464;11.764;2023-06-10T11:45:43;11.10;;;6.80;;
66129;SDS011;52930;51.464;11.764;2023-06-10T11:48:09;11.80;;;6.90;;
66129;SDS011;52930;51.464;11.764;2023-06-10T11:50:35;12.20;;;7.50;;
66129;SDS011;52930;51.464;11.764;2023-06-10T11:53:00;12.60;;;7.45;;
66129;SDS011;52930;51.464;11.764;2023-06-10T11:55:39;11.97;;;7.47;;
66129;SDS011;52930;51.464;11.764;2023-06-10T12:00:47;12.13;;;7.67;;
66129;SDS011;52930;51.464;11.764;2023-06-10T12:03:16;12.50;;;7.07;;
66129;SDS011;52930;51.464;11.764;2023-06-10T12:06:01;10.35;;;7.35;;
66129;SDS011;52930;51.464;11.764;2023-06-10T12:08:28;11.43;;;7.95;;
66129;SDS011;52930;51.464;11.764;2023-06-10T12:10:54;10.80;;;7.20;;
66129;SDS011;52930;51.464;11.764;2023-06-10T12:13:20;13.55;;;7.90;;
66129;SDS011;52930;51.464;11.764;2023-06-10T12:15:46;12.23;;;7.63;;
66129;SDS011;52930;51.464;11.764;2023-06-10T12:18:19;11.63;;;7.90;;
66129;SDS011;52930;51.464;11.764;2023-06-10T12:20:45;12.10;;;8.20;;
66129;SDS011;52930;51.464;11.764;2023-06-10T12:23:11;11.65;;;7.78;;
66129;SDS011;52930;51.464;11.764;2023-06-10T12:25:37;13.43;;;7.97;;
66129;SDS011;52930;51.464;11.764;2023-06-10T12:28:03;11.98;;;8.35;;
66129;SDS011;52930;51.464;11.764;2023-06-10T12:30:29;11.60;;;7.80;;
66129;SDS011;52930;51.464;11.764;2023-06-10T12:32:55;10.57;;;7.07;;
66129;SDS011;52930;51.464;11.764;2023-06-10T12:35:23;12.93;;;7.70;;
66129;SDS011;52930;51.464;11.764;2023-06-10T12:40:33;14.23;;;7.57;;
66129;SDS011;52930;51.464;11.764;2023-06-10T12:43:00;11.33;;;7.90;;
66129;SDS011;52930;51.464;11.764;2023-06-10T12:45:35;10.32;;;7.80;;
66129;SDS011;52930;51.464;11.764;2023-06-10T12:48:17;11.57;;;7.90;;
66129;SDS011;52930;51.464;11.764;2023-06-10T12:50:57;12.70;;;7.10;;
66129;SDS011;52930;51.464;11.764;2023-06-10T12:53:23;11.95;;;7.80;;
66129;SDS011;52930;51.464;11.764;2023-06-10T12:55:49;10.75;;;8.15;;
66129;SDS011;52930;51.464;11.764;2023-06-10T12:58:15;15.10;;;8.40;;
66129;SDS011;52930;51.464;11.764;2023-06-10T13:00:41;13.90;;;8.07;;
66129;SDS011;52930;51.464;11.764;2023-06-10T13:03:07;11.05;;;7.63;;
66129;SDS011;52930;51.464;11.764;2023-06-10T13:05:34;15.18;;;7.15;;
66129;SDS011;52930;51.464;11.764;2023-06-10T13:08:02;9.90;;;7.70;;
66129;SDS011;52930;51.464;11.764;2023-06-10T13:10:27;10.63;;;7.50;;
66129;SDS011;52930;51.464;11.764;2023-06-10T13:12:53;9.90;;;7.50;;
66129;SDS011;52930;51.464;11.764;2023-06-10T13:15:19;13.57;;;8.75;;
66129;SDS011;52930;51.464;11.764;2023-06-10T13:17:45;10.07;;;7.63;;
66129;SDS011;52930;51.464;11.764;2023-06-10T13:20:14;11.90;;;7.80;;
66129;SDS011;52930;51.464;11.764;2023-06-10T13:22:39;11.30;;;7.90;;
66129;SDS011;52930;51.464;11.764;2023-06-10T13:25:05;10.67;;;7.87;;
66129;SDS011;52930;51.464;11.764;2023-06-10T13:27:34;11.70;;;8.00;;
66129;SDS011;52930;51.464;11.764;2023-06-10T13:30:00;9.60;;;6.97;;
66129;SDS011;52930;51.464;11.764;2023-06-10T13:32:25;13.47;;;8.00;;
66129;SDS011;52930;51.464;11.764;2023-06-10T13:34:51;13.33;;;8.23;;
66129;SDS011;52930;51.464;11.764;2023-06-10T13:37:16;12.88;;;7.90;;
66129;SDS011;52930;51.464;11.764;2023-06-10T13:39:45;11.30;;;8.02;;
66129;SDS011;52930;51.464;11.764;2023-06-10T13:42:19;8.93;;;7.13;;
66129;SDS011;52930;51.464;11.764;2023-06-10T13:44:45;11.07;;;6.80;;
66129;SDS011;52930;51.464;11.764;2023-06-10T13:47:12;9.85;;;5.47;;
66129;SDS011;52930;51.464;11.764;2023-06-10T13:49:38;10.07;;;5.60;;
66129;SDS011;52930;51.464;11.764;2023-06-10T13:52:03;9.23;;;5.53;;
66129;SDS011;52930;51.464;11.764;2023-06-10T13:54:29;11.07;;;6.18;;
66129;SDS011;52930;51.464;11.764;2023-06-10T13:56:54;10.33;;;6.37;;
66129;SDS011;52930;51.464;11.764;2023-06-10T13:59:20;10.27;;;6.23;;
66129;SDS011;52930;51.464;11.764;2023-06-10T14:01:46;9.70;;;6.05;;
66129;SDS011;52930;51.464;11.764;2023-06-10T14:04:11;9.77;;;5.77;;
66129;SDS011;52930;51.464;11.764;2023-06-10T14:06:37;10.70;;;6.28;;
66129;SDS011;52930;51.464;11.764;2023-06-10T14:09:02;11.43;;;6.37;;
66129;SDS011;52930;51.464;11.764;2023-06-10T14:11:28;9.67;;;6.77;;
66129;SDS011;52930;51.464;11.764;2023-06-10T14:13:53;12.90;;;6.43;;
66129;SDS011;52930;51.464;11.764;2023-06-10T14:16:21;11.45;;;6.18;;
66129;SDS011;52930;51.464;11.764;2023-06-10T14:18:46;9.53;;;6.67;;
66129;SDS011;52930;51.464;11.764;2023-06-10T14:21:12;12.87;;;6.40;;
66129;SDS011;52930;51.464;11.764;2023-06-10T14:23:37;11.17;;;6.70;;
66129;SDS011;52930;51.464;11.764;2023-06-10T14:26:02;13.27;;;7.13;;
66129;SDS011;52930;51.464;11.764;2023-06-10T14:28:28;12.20;;;6.30;;
66129;SDS011;52930;51.464;11.764;2023-06-10T14:30:54;9.13;;;6.15;;
66129;SDS011;52930;51.464;11.764;2023-06-10T14:33:19;10.03;;;5.20;;
66129;SDS011;52930;51.464;11.764;2023-06-10T14:35:44;14.07;;;5.20;;
66129;SDS011;52930;51.464;11.764;2023-06-10T14:38:10;9.77;;;5.30;;
66129;SDS011;52930;51.464;11.764;2023-06-10T14:40:35;9.85;;;5.47;;
66129;SDS011;52930;51.464;11.764;2023-06-10T14:43:01;8.77;;;5.67;;